| time (UTC) | temp C | wind direction | speed KPH | gust KPH | rain 1hr cm | rain 24hr cm | rain mn cm | humidity % | barometer mb |
| 20260507032021 | 3 | 315 | 0.0 | 0.0 | 0.00 | 0.53 | 0.43 | 86 | 1013.2 |
| 20260507025019 | 3 | 315 | 0.0 | 0.0 | 0.00 | 0.58 | 0.43 | 66 | 1013.6 |
| 20260507024016 | 3 | 315 | 0.0 | 0.0 | 0.00 | 0.58 | 0.43 | 63 | 1013.4 |
| 20260507021017 | 3 | 315 | 0.0 | 0.0 | 0.00 | 0.69 | 0.43 | 76 | 1013.4 |
| 20260507010013 | 6 | 315 | 0.0 | 0.0 | 0.00 | 0.89 | 0.43 | 60 | 1012.8 |
| 20260507003019 | 8 | 315 | 0.0 | 0.0 | 0.00 | 1.04 | 0.43 | 50 | 1012.5 |
| 20260507002013 | 9 | 315 | 0.0 | 0.0 | 0.00 | 1.12 | 0.43 | 50 | 1012.5 |
| 20260506235011 | 11 | 315 | 0.0 | 0.0 | 0.00 | 1.32 | 0.43 | 45 | 1012.4 |
| 20260506233021 | 11 | 315 | 0.0 | 0.0 | 0.00 | 1.37 | 0.43 | 45 | 1012.3 |
| 20260506230021 | 12 | 293 | 0.0 | 1.6 | 0.00 | 1.42 | 0.43 | 44 | 1012.7 |
| 20260506225017 | 12 | 248 | 0.0 | 8.0 | 0.00 | 1.47 | 0.43 | 45 | 1012.9 |
| 20260506224020 | 12 | 315 | 0.0 | 1.6 | 0.00 | 1.50 | 0.43 | 52 | 1012.9 |
| 20260506223022 | 12 | 248 | 0.0 | 8.0 | 0.00 | 1.52 | 0.43 | 45 | 1012.9 |
| 20260506222012 | 13 | 248 | 0.0 | 8.0 | 0.00 | 1.52 | 0.43 | 46 | 1012.8 |
| 20260506214017 | 13 | 315 | 0.0 | 4.8 | 0.00 | 1.55 | 0.43 | 48 | 1012.6 |
| 20260506213019 | 13 | 270 | 0.0 | 1.6 | 0.00 | 1.55 | 0.43 | 48 | 1012.3 |
| 20260506211014 | 14 | 293 | 0.0 | 8.0 | 0.00 | 1.57 | 0.43 | 48 | 1012.2 |
| 20260506210015 | 14 | 315 | 0.0 | 4.8 | 0.00 | 1.60 | 0.43 | 49 | 1012.1 |
| 20260506204014 | 13 | 315 | 0.0 | 4.8 | 0.00 | 1.65 | 0.43 | 43 | 1012.1 |
| 20260506203016 | 14 | 315 | 0.0 | 4.8 | 0.00 | 1.68 | 0.43 | 43 | 1012.1 |
| 20260506202013 | 14 | 293 | 0.0 | 4.8 | 0.00 | 1.73 | 0.43 | 43 | 1012.1 |
| 20260506201010 | 15 | 315 | 0.0 | 8.0 | 0.00 | 1.80 | 0.43 | 44 | 1012.1 |
| 20260506195013 | 14 | 315 | 0.0 | 3.2 | 0.00 | 1.83 | 0.43 | 44 | 1012.1 |
| 20260506191017 | 14 | 270 | 0.0 | 9.7 | 0.00 | 1.85 | 0.43 | 46 | 1012.0 |
| 20260506183012 | 15 | 315 | 0.0 | 4.8 | 0.00 | 1.93 | 0.43 | 44 | 1011.8 |
| 20260506182014 | 15 | 338 | 0.0 | 8.0 | 0.00 | 1.93 | 0.43 | 45 | 1011.8 |
| 20260506181015 | 15 | 293 | 0.0 | 3.2 | 0.00 | 1.93 | 0.43 | 44 | 1012.2 |
| 20260506180020 | 15 | 0 | 0.0 | 8.0 | 0.00 | 1.93 | 0.43 | 46 | 1012.0 |
| 20260506175013 | 16 | 315 | 0.0 | 8.0 | 0.00 | 1.93 | 0.43 | 44 | 1012.3 |
| 20260506173015 | 20 | 315 | 0.0 | 4.8 | 0.00 | 1.93 | 0.43 | 40 | 1012.0 |
| 20260506171012 | 23 | 315 | 0.0 | 9.7 | 0.00 | 1.93 | 0.43 | 39 | 1012.0 |
| 20260506170011 | 22 | 315 | 1.6 | 4.8 | 0.00 | 1.93 | 0.43 | 46 | 1012.2 |
| 20260506165010 | 22 | 315 | 0.0 | 11.3 | 0.00 | 1.93 | 0.43 | 43 | 1012.1 |
| 20260506164011 | 22 | 315 | 1.6 | 11.3 | 0.00 | 1.93 | 0.43 | 45 | 1012.0 |
| 20260506163011 | 21 | 315 | 0.0 | 11.3 | 0.00 | 1.93 | 0.43 | 44 | 1011.8 |
| 20260506162010 | 21 | 0 | 0.0 | 12.9 | 0.00 | 1.93 | 0.43 | 43 | 1012.0 |
| 20260506161013 | 21 | 315 | 0.0 | 11.3 | 0.00 | 1.93 | 0.43 | 44 | 1011.9 |
| 20260506155012 | 20 | 315 | 0.0 | 8.0 | 0.00 | 1.93 | 0.43 | 47 | 1012.0 |
| 20260506154019 | 22 | 315 | 0.0 | 4.8 | 0.00 | 1.93 | 0.43 | 54 | 1012.0 |
| 20260506152017 | 21 | 315 | 0.0 | 4.8 | 0.03 | 1.93 | 0.43 | 53 | 1011.5 |
| 20260506145012 | 18 | 270 | 0.0 | 3.2 | 0.03 | 1.93 | 0.43 | 60 | 1011.3 |
| 20260506144011 | 16 | 338 | 0.0 | 4.8 | 0.03 | 1.93 | 0.43 | 78 | 1011.2 |
| 20260506142021 | 14 | 0 | 0.0 | 8.0 | 0.00 | 1.91 | 0.41 | 79 | 1011.2 |
| 20260506141020 | 13 | 315 | 0.0 | 4.8 | 0.00 | 1.91 | 0.41 | 83 | 1011.1 |
| 20260506135021 | 11 | 315 | 0.0 | 8.0 | 0.00 | 1.91 | 0.41 | 84 | 1010.9 |
| 20260506134019 | 11 | 315 | 0.0 | 3.2 | 0.00 | 1.91 | 0.41 | 98 | 1010.4 |
| 20260506133018 | 11 | 0 | 0.0 | 0.0 | 0.00 | 1.91 | 0.41 | 95 | 1010.5 |
| 20260506131018 | 8 | 0 | 0.0 | 0.0 | 0.00 | 1.91 | 0.41 | 88 | 1010.7 |
| 20260506125018 | 8 | 0 | 0.0 | 0.0 | 0.00 | 1.91 | 0.41 | 90 | 1010.5 |
| 20260506124017 | 8 | 0 | 0.0 | 0.0 | 0.00 | 1.91 | 0.41 | 87 | 1010.2 |
| 20260506115022 | 6 | 0 | 0.0 | 0.0 | 0.00 | 1.91 | 0.41 | 83 | 1009.5 |
| 20260506113019 | 6 | 0 | 0.0 | 0.0 | 0.00 | 1.91 | 0.41 | 82 | 1009.1 |
| 20260506112016 | 5 | 0 | 0.0 | 0.0 | 0.00 | 1.91 | 0.41 | 82 | 1008.8 |
| 20260506111018 | 5 | 0 | 0.0 | 0.0 | 0.00 | 1.91 | 0.41 | 82 | 1008.4 |
| 20260506110021 | 5 | 0 | 0.0 | 0.0 | 0.00 | 1.91 | 0.41 | 82 | 1008.6 |
| 20260506105020 | 5 | 0 | 0.0 | 0.0 | 0.00 | 1.91 | 0.41 | 81 | 1008.5 |
| 20260506102016 | 5 | 0 | 0.0 | 0.0 | 0.00 | 1.91 | 0.41 | 82 | 1008.2 |
| 20260506095011 | 5 | 0 | 0.0 | 0.0 | 0.00 | 1.91 | 0.41 | 82 | 1008.2 |
| 20260506093017 | 5 | 0 | 0.0 | 0.0 | 0.00 | 1.93 | 0.41 | 82 | 1007.6 |
| 20260506091013 | 5 | 0 | 0.0 | 0.0 | 0.00 | 1.96 | 0.41 | 82 | 1007.5 |
| 20260506083021 | 5 | 0 | 0.0 | 4.8 | 0.00 | 2.11 | 0.41 | 86 | 1007.4 |
| 20260506073015 | 6 | 0 | 1.6 | 11.3 | 0.05 | 2.11 | 0.41 | 70 | 1007.3 |
| 20260506061014 | 6 | 0 | 0.0 | 0.0 | 0.13 | 2.03 | 0.33 | 70 | 1007.9 |
| 20260506051009 | 6 | 0 | 0.0 | 8.0 | 0.10 | 1.91 | 0.20 | 68 | 1008.0 |
| 20260506045015 | 6 | 0 | 0.0 | 4.8 | 0.28 | 1.88 | 0.18 | 68 | 1007.8 |
| 20260506042011 | 6 | 0 | 1.6 | 16.1 | 0.30 | 1.85 | 0.15 | 67 | 1007.7 |
| 20260506041010 | 7 | 0 | 1.6 | 11.3 | 0.25 | 1.80 | 0.10 | 67 | 1007.9 |
| 20260506035017 | 7 | 0 | 4.8 | 16.1 | 0.10 | 1.65 | 1.65 | 68 | 1007.7 |